Time;durP1;ratioP1;P1;durP2;ratioP2;P2;SDS_P1;SDS_P2;PMS_P1;PMS_P2;Temp;Humidity;BMP_temperature;BMP_pressure;BME280_temperature;BME280_humidity;BME280_pressure;Samples;Min_cycle;Max_cycle;Signal;HPM_P1;HPM_P2
2022/03/19 00:00:59;;;;;;;55.65;35.20;;;4.10;99.90;;;;;;4991605;28;20597;-65
2022/03/19 00:03:25;;;;;;;56.97;33.43;;;4.10;99.90;;;;;;4990942;28;20181;-64
2022/03/19 00:05:51;;;;;;;55.67;34.00;;;4.00;99.90;;;;;;4991963;28;20204;-66
2022/03/19 00:08:17;;;;;;;57.97;35.60;;;3.90;99.90;;;;;;4991476;28;20184;-66
2022/03/19 00:10:43;;;;;;;52.37;34.13;;;3.90;99.90;;;;;;4991588;28;20196;-65
2022/03/19 00:13:10;;;;;;;53.88;34.00;;;3.90;99.90;;;;;;4991608;28;20503;-66
2022/03/19 00:15:37;;;;;;;58.10;34.08;;;3.80;99.90;;;;;;4991556;28;20192;-65
2022/03/19 00:18:03;;;;;;;52.60;33.25;;;3.80;99.90;;;;;;4991617;28;20643;-65
2022/03/19 00:20:29;;;;;;;51.67;34.67;;;3.70;99.90;;;;;;4987307;28;20254;-66
2022/03/19 00:22:54;;;;;;;60.38;35.53;;;3.70;99.90;;;;;;4991539;28;20608;-64
2022/03/19 00:25:20;;;;;;;55.37;34.30;;;3.70;99.90;;;;;;5000041;28;20220;-65
2022/03/19 00:27:45;;;;;;;50.57;33.17;;;3.80;99.90;;;;;;4991429;28;20195;-66
2022/03/19 00:30:11;;;;;;;56.87;35.10;;;3.80;99.90;;;;;;4992471;28;20191;-66
2022/03/19 00:32:37;;;;;;;53.57;35.23;;;3.80;99.90;;;;;;4991299;28;20196;-65
2022/03/19 00:35:04;;;;;;;55.15;34.25;;;3.80;99.90;;;;;;4992100;28;20223;-65
2022/03/19 00:37:32;;;;;;;56.15;34.45;;;3.80;99.90;;;;;;4992033;28;20213;-66
2022/03/19 00:39:58;;;;;;;62.75;36.35;;;3.80;99.90;;;;;;4989774;28;20189;-65
2022/03/19 00:42:24;;;;;;;50.83;34.60;;;3.80;99.90;;;;;;4989885;28;20243;-65
2022/03/19 00:44:50;;;;;;;54.25;35.90;;;3.70;99.90;;;;;;4991045;28;20291;-65
2022/03/19 00:47:15;;;;;;;51.80;34.33;;;3.70;99.90;;;;;;4992409;28;20259;-65
2022/03/19 00:49:41;;;;;;;57.73;35.80;;;3.70;99.90;;;;;;4990865;28;20266;-65
2022/03/19 00:52:06;;;;;;;58.33;35.50;;;3.80;99.90;;;;;;4989417;28;20243;-65
2022/03/19 00:54:32;;;;;;;54.97;33.80;;;3.70;99.90;;;;;;4991116;28;20225;-65
2022/03/19 00:56:57;;;;;;;52.83;33.93;;;3.70;99.90;;;;;;4990903;28;20635;-65
2022/03/19 00:59:23;;;;;;;54.13;35.20;;;3.60;99.90;;;;;;4990896;28;20185;-64
2022/03/19 01:01:48;;;;;;;57.73;34.37;;;3.60;99.90;;;;;;4987200;28;20604;-65
2022/03/19 01:04:14;;;;;;;50.10;32.40;;;3.60;99.90;;;;;;4991096;28;20708;-65
2022/03/19 01:06:40;;;;;;;52.50;34.03;;;3.50;99.90;;;;;;4990864;28;20177;-65
2022/03/19 01:09:05;;;;;;;59.30;34.97;;;3.50;99.90;;;;;;4990237;28;20175;-64
2022/03/19 01:11:31;;;;;;;54.13;33.40;;;3.50;99.90;;;;;;4990712;28;20163;-64
2022/03/19 01:13:57;;;;;;;53.30;34.03;;;3.40;99.90;;;;;;4989781;28;20274;-64
2022/03/19 01:16:25;;;;;;;50.73;32.70;;;3.40;99.90;;;;;;4990267;28;20175;-65
2022/03/19 01:18:51;;;;;;;55.92;33.90;;;3.30;99.90;;;;;;4992210;28;20953;-65
2022/03/19 01:21:17;;;;;;;48.80;33.10;;;3.30;99.90;;;;;;4989304;28;20188;-65
2022/03/19 01:23:43;;;;;;;53.50;32.67;;;3.20;99.90;;;;;;4990393;28;20188;-66
2022/03/19 01:26:08;;;;;;;45.43;32.53;;;3.20;99.90;;;;;;4989942;28;20215;-65
2022/03/19 01:28:34;;;;;;;57.07;34.50;;;3.20;99.90;;;;;;4988960;28;20188;-66
2022/03/19 01:31:00;;;;;;;57.30;34.60;;;3.10;99.90;;;;;;4996272;28;20180;-65
2022/03/19 01:33:26;;;;;;;54.05;31.55;;;3.10;99.90;;;;;;4992111;28;20262;-64
2022/03/19 01:35:51;;;;;;;57.20;33.70;;;3.10;99.90;;;;;;4990283;28;20307;-64
2022/03/19 01:38:17;;;;;;;62.07;35.50;;;3.10;99.90;;;;;;4991548;28;20195;-66
2022/03/19 01:40:42;;;;;;;52.73;34.00;;;3.10;99.90;;;;;;4990257;28;20189;-65
2022/03/19 01:43:08;;;;;;;54.33;34.20;;;3.00;99.90;;;;;;4989594;28;20188;-66
2022/03/19 01:45:33;;;;;;;57.20;35.23;;;3.00;99.90;;;;;;4990163;28;20227;-65
2022/03/19 01:47:59;;;;;;;60.17;36.00;;;3.00;99.90;;;;;;4989952;28;20183;-66
2022/03/19 01:50:26;;;;;;;52.27;34.83;;;2.90;99.90;;;;;;4985568;28;20274;-66
2022/03/19 01:52:52;;;;;;;55.00;33.97;;;2.90;99.90;;;;;;4990197;28;20175;-65
2022/03/19 01:55:22;;;;;;;57.67;34.15;;;2.90;99.90;;;;;;4989854;28;20191;-63
2022/03/19 01:57:49;;;;;;;65.30;34.75;;;2.90;99.90;;;;;;4989105;28;20278;-66
2022/03/19 02:00:22;;;;;;;62.45;34.90;;;2.90;99.90;;;;;;4989918;28;20271;-66
2022/03/19 02:02:49;;;;;;;62.40;35.45;;;2.90;99.90;;;;;;4988990;28;20278;-65
2022/03/19 02:05:16;;;;;;;56.50;34.40;;;2.90;99.90;;;;;;4989213;28;20242;-65
2022/03/19 02:07:43;;;;;;;54.28;33.83;;;2.80;99.90;;;;;;4989965;28;20176;-65
2022/03/19 02:10:10;;;;;;;56.38;34.17;;;2.80;99.90;;;;;;4989315;28;20183;-64
2022/03/19 02:12:36;;;;;;;53.10;34.13;;;2.80;99.90;;;;;;4989741;28;20239;-65
2022/03/19 02:15:02;;;;;;;60.70;35.55;;;2.80;99.90;;;;;;4988194;28;20304;-64
2022/03/19 02:17:28;;;;;;;60.38;34.60;;;2.90;99.90;;;;;;4989828;28;20198;-65
2022/03/19 02:19:55;;;;;;;63.50;36.70;;;2.80;99.90;;;;;;4992354;28;20287;-66
2022/03/19 02:22:23;;;;;;;60.30;35.53;;;2.80;99.90;;;;;;4994892;28;20192;-64
2022/03/19 02:27:34;;;;;;;56.08;33.70;;;2.90;99.90;;;;;;4993074;28;20195;-66
2022/03/19 02:30:00;;;;;;;54.30;34.20;;;3.00;99.90;;;;;;4993062;28;20189;-65
2022/03/19 02:32:26;;;;;;;56.70;34.08;;;3.00;99.90;;;;;;4992496;28;20659;-63
2022/03/19 02:34:55;;;;;;;68.40;37.20;;;3.10;99.90;;;;;;5004024;28;20219;-66
2022/03/19 02:37:21;;;;;;;58.25;36.38;;;3.20;99.90;;;;;;4993981;28;20435;-65
2022/03/19 02:39:47;;;;;;;65.47;36.50;;;3.20;99.90;;;;;;4994218;28;20185;-65
2022/03/19 02:42:17;;;;;;;58.80;37.10;;;3.20;99.90;;;;;;4993900;28;20279;-65
2022/03/19 02:44:43;;;;;;;64.20;37.78;;;3.30;99.90;;;;;;4993346;28;20537;-65
2022/03/19 02:47:08;;;;;;;58.60;35.77;;;3.40;99.90;;;;;;4993338;28;20215;-65
2022/03/19 02:49:35;;;;;;;61.07;36.97;;;3.40;99.90;;;;;;4993897;28;20446;-65
2022/03/19 02:52:01;;;;;;;58.35;36.08;;;3.50;99.90;;;;;;4992451;28;20509;-65
2022/03/19 02:54:29;;;;;;;53.55;35.22;;;3.60;99.90;;;;;;4993463;28;20200;-66
2022/03/19 02:56:55;;;;;;;58.75;37.03;;;3.60;99.90;;;;;;4993123;28;20267;-65
2022/03/19 02:59:30;;;;;;;53.03;32.65;;;3.60;99.90;;;;;;4992525;28;20291;-66
2022/03/19 03:01:58;;;;;;;57.10;34.88;;;3.70;99.90;;;;;;4993746;28;20192;-66
2022/03/19 03:04:24;;;;;;;54.33;33.72;;;3.70;99.90;;;;;;4987128;28;20212;-65
2022/03/19 03:06:52;;;;;;;51.37;32.70;;;3.70;99.90;;;;;;4991753;28;20210;-65
2022/03/19 03:09:22;;;;;;;59.33;33.53;;;3.80;99.90;;;;;;4990191;28;20420;-65
2022/03/19 03:11:48;;;;;;;54.67;33.17;;;3.90;99.90;;;;;;4989198;28;20766;-65
2022/03/19 03:14:14;;;;;;;47.88;30.42;;;3.90;99.90;;;;;;4992651;28;20598;-66
2022/03/19 03:16:41;;;;;;;51.07;30.47;;;4.00;99.90;;;;;;4992947;28;20242;-66
2022/03/19 03:19:10;;;;;;;50.58;31.73;;;4.00;99.90;;;;;;4995207;28;20192;-64
2022/03/19 03:21:36;;;;;;;47.60;30.83;;;4.00;99.90;;;;;;4990127;28;20211;-64
2022/03/19 03:24:03;;;;;;;43.90;27.15;;;4.00;99.90;;;;;;4992820;28;20226;-66
2022/03/19 03:26:30;;;;;;;42.63;25.83;;;4.10;99.90;;;;;;4990142;28;20180;-65
2022/03/19 03:28:56;;;;;;;40.50;25.80;;;4.20;99.90;;;;;;4992201;28;20185;-65
2022/03/19 03:31:23;;;;;;;43.80;25.58;;;4.30;99.90;;;;;;4991976;28;20215;-67
2022/03/19 03:33:49;;;;;;;33.00;23.75;;;4.30;99.90;;;;;;4991393;28;20589;-66
2022/03/19 03:36:14;;;;;;;34.03;23.98;;;4.30;99.90;;;;;;4984695;28;20351;-65
2022/03/19 03:38:40;;;;;;;37.53;23.47;;;4.30;99.90;;;;;;4993823;28;20287;-66
2022/03/19 03:41:06;;;;;;;32.60;23.30;;;4.30;99.90;;;;;;4992068;28;20188;-65
2022/03/19 03:43:32;;;;;;;36.20;23.77;;;4.40;99.90;;;;;;4991304;28;21076;-65
2022/03/19 03:45:58;;;;;;;34.20;22.10;;;4.40;99.90;;;;;;4992034;28;20554;-65
2022/03/19 03:48:23;;;;;;;35.10;21.57;;;4.40;99.90;;;;;;4991240;28;20423;-64
2022/03/19 03:50:53;;;;;;;36.50;22.00;;;4.50;99.90;;;;;;4991388;28;20295;-65
2022/03/19 03:53:19;;;;;;;34.25;20.85;;;4.50;99.90;;;;;;4991944;28;20209;-64
2022/03/19 03:55:45;;;;;;;36.47;21.80;;;4.50;99.90;;;;;;4991740;28;20223;-66
2022/03/19 03:58:11;;;;;;;31.42;21.08;;;4.50;99.90;;;;;;4992846;28;20890;-66
2022/03/19 04:00:36;;;;;;;31.42;20.02;;;4.50;99.90;;;;;;4991894;28;20171;-65
2022/03/19 04:03:03;;;;;;;33.77;21.70;;;4.40;99.90;;;;;;4991194;28;20180;-65
2022/03/19 04:05:29;;;;;;;27.23;19.80;;;4.30;99.90;;;;;;4990626;28;20985;-65
2022/03/19 04:07:55;;;;;;;34.40;21.92;;;4.20;99.90;;;;;;4991021;28;20215;-65
2022/03/19 04:10:21;;;;;;;30.30;20.10;;;4.20;99.90;;;;;;4991604;28;20251;-65
2022/03/19 04:12:47;;;;;;;35.03;22.33;;;4.20;99.90;;;;;;4991437;28;20425;-65
2022/03/19 04:15:12;;;;;;;40.20;24.80;;;4.10;99.90;;;;;;4991014;28;20235;-66
2022/03/19 04:17:38;;;;;;;37.17;25.03;;;4.10;99.90;;;;;;4991764;28;20184;-63
2022/03/19 04:20:05;;;;;;;42.57;25.63;;;4.10;99.90;;;;;;4997925;28;20207;-65
2022/03/19 04:22:35;;;;;;;41.10;26.20;;;4.10;99.90;;;;;;5000887;28;20696;-65
2022/03/19 04:25:00;;;;;;;34.90;23.83;;;4.20;99.90;;;;;;4990074;28;20203;-65
2022/03/19 04:27:26;;;;;;;33.20;22.60;;;4.20;99.90;;;;;;4995143;28;20778;-66
2022/03/19 04:29:52;;;;;;;36.60;23.30;;;4.30;99.90;;;;;;4990751;28;20246;-65
2022/03/19 04:32:17;;;;;;;30.50;20.63;;;4.30;99.90;;;;;;4991166;28;20185;-66
2022/03/19 04:34:43;;;;;;;34.27;23.40;;;4.30;99.90;;;;;;4987403;28;20192;-65
2022/03/19 04:37:08;;;;;;;31.57;20.70;;;4.40;99.90;;;;;;4990973;28;20199;-64
2022/03/19 04:39:34;;;;;;;33.10;21.43;;;4.40;99.90;;;;;;4990317;28;20203;-64
2022/03/19 04:41:59;;;;;;;30.30;21.00;;;4.40;99.90;;;;;;4990400;28;20184;-65
2022/03/19 04:44:25;;;;;;;30.27;19.30;;;4.50;99.90;;;;;;4991848;28;20937;-65
2022/03/19 04:46:51;;;;;;;26.20;18.03;;;4.50;99.90;;;;;;4990989;28;20577;-65
2022/03/19 04:49:16;;;;;;;26.03;16.90;;;4.50;99.90;;;;;;4991225;28;20192;-64
2022/03/19 04:51:42;;;;;;;28.10;18.07;;;4.50;99.90;;;;;;5000124;28;20192;-65
2022/03/19 04:54:08;;;;;;;23.50;17.37;;;4.60;99.90;;;;;;4989538;28;20200;-65
2022/03/19 04:56:33;;;;;;;22.43;16.13;;;4.50;99.90;;;;;;4989972;28;20184;-65
2022/03/19 04:59:00;;;;;;;25.70;16.60;;;4.50;99.90;;;;;;5002069;28;20231;-66
2022/03/19 05:01:27;;;;;;;22.50;15.35;;;4.40;99.90;;;;;;4993070;28;20207;-66
2022/03/19 05:03:52;;;;;;;25.80;16.48;;;4.30;99.90;;;;;;4991409;28;20184;-65
2022/03/19 05:06:18;;;;;;;22.63;15.73;;;4.30;99.90;;;;;;4990083;28;20198;-66
2022/03/19 05:08:44;;;;;;;26.52;16.00;;;4.30;99.90;;;;;;4990501;28;20176;-65
2022/03/19 05:11:13;;;;;;;23.73;16.43;;;4.40;99.90;;;;;;4990781;28;20655;-66
2022/03/19 05:13:44;;;;;;;27.60;16.02;;;4.40;99.90;;;;;;4990371;28;20299;-66
2022/03/19 05:16:11;;;;;;;26.17;16.60;;;4.40;99.90;;;;;;4990439;28;20184;-66
2022/03/19 05:18:37;;;;;;;22.92;14.23;;;4.40;99.90;;;;;;4989564;28;20229;-66
2022/03/19 05:21:04;;;;;;;25.08;16.10;;;4.40;99.90;;;;;;4991135;28;20180;-65
2022/03/19 05:23:30;;;;;;;21.30;15.30;;;4.50;99.90;;;;;;4989582;28;20713;-65
2022/03/19 05:25:55;;;;;;;25.60;15.13;;;4.50;99.90;;;;;;4990431;28;20212;-65
2022/03/19 05:28:21;;;;;;;21.30;14.80;;;4.60;99.90;;;;;;4981814;28;20422;-64
2022/03/19 05:30:47;;;;;;;21.60;15.20;;;4.60;99.90;;;;;;4991314;28;20180;-66
2022/03/19 05:33:14;;;;;;;21.10;14.70;;;4.60;99.90;;;;;;4990222;28;20824;-66
2022/03/19 05:35:40;;;;;;;20.10;14.20;;;4.60;99.90;;;;;;4990204;28;20218;-65
2022/03/19 05:38:06;;;;;;;24.17;14.70;;;4.70;99.90;;;;;;4972634;28;20287;-66
2022/03/19 05:40:32;;;;;;;21.43;14.10;;;4.70;99.90;;;;;;4989818;28;20622;-66
2022/03/19 05:42:57;;;;;;;19.33;14.00;;;4.70;99.90;;;;;;4990098;28;20420;-64
2022/03/19 05:45:23;;;;;;;18.57;13.03;;;4.80;99.90;;;;;;4989456;28;20383;-66
2022/03/19 05:47:49;;;;;;;18.67;12.70;;;4.80;99.90;;;;;;4990463;28;20181;-66
2022/03/19 05:50:16;;;;;;;22.15;14.07;;;4.70;99.90;;;;;;4989675;28;20678;-66
2022/03/19 05:52:45;;;;;;;17.40;12.77;;;4.70;99.90;;;;;;4989462;28;21082;-66
2022/03/19 05:55:10;;;;;;;21.13;12.73;;;4.70;99.90;;;;;;4989061;28;20184;-66
2022/03/19 05:57:36;;;;;;;16.43;12.40;;;4.60;99.90;;;;;;4985748;28;20829;-64
2022/03/19 06:00:03;;;;;;;18.10;12.77;;;4.70;99.90;;;;;;4980130;28;20451;-65
2022/03/19 06:02:29;;;;;;;19.52;12.82;;;4.70;99.90;;;;;;4989037;28;20204;-65
2022/03/19 06:04:54;;;;;;;17.37;12.43;;;4.70;99.90;;;;;;4989759;28;20235;-65
2022/03/19 06:07:20;;;;;;;20.27;12.80;;;4.70;99.90;;;;;;4988402;28;20188;-66
2022/03/19 06:09:45;;;;;;;19.40;11.83;;;4.80;99.90;;;;;;4989097;28;20199;-66
2022/03/19 06:12:11;;;;;;;19.80;11.10;;;4.80;99.90;;;;;;4990661;28;20546;-65
2022/03/19 06:14:37;;;;;;;15.50;11.47;;;4.90;99.90;;;;;;4992711;28;20258;-65
2022/03/19 06:17:02;;;;;;;16.90;12.10;;;4.90;99.90;;;;;;4990018;28;20185;-66
2022/03/19 06:19:28;;;;;;;16.40;10.97;;;5.00;99.90;;;;;;4985398;28;20195;-66
2022/03/19 06:21:54;;;;;;;17.73;11.30;;;5.00;99.90;;;;;;4988856;28;20442;-65
2022/03/19 06:24:22;;;;;;;14.63;10.43;;;5.00;99.90;;;;;;4987410;28;20227;-65
2022/03/19 06:26:48;;;;;;;15.95;11.77;;;4.90;99.90;;;;;;4989626;28;20177;-66
2022/03/19 06:29:13;;;;;;;19.80;11.00;;;5.00;99.90;;;;;;4988475;28;20211;-64
2022/03/19 06:31:39;;;;;;;18.37;10.60;;;5.00;99.90;;;;;;4989369;28;20528;-66
2022/03/19 06:34:04;;;;;;;15.60;10.87;;;5.00;99.90;;;;;;4989337;28;20188;-65
2022/03/19 06:39:14;;;;;;;15.80;10.50;;;5.10;99.90;;;;;;4990271;28;20842;-65
2022/03/19 06:41:40;;;;;;;14.93;10.70;;;5.20;99.90;;;;;;4988620;28;20192;-66
2022/03/19 06:44:06;;;;;;;22.97;12.87;;;5.10;99.90;;;;;;4987632;28;20432;-66
2022/03/19 06:46:32;;;;;;;15.83;12.03;;;5.10;99.90;;;;;;4989371;28;20527;-65
2022/03/19 06:48:57;;;;;;;19.27;11.37;;;5.10;99.90;;;;;;4990468;28;20199;-65
2022/03/19 06:51:23;;;;;;;17.97;10.57;;;5.20;99.90;;;;;;4989736;28;20225;-65
2022/03/19 06:53:49;;;;;;;20.00;11.60;;;5.30;99.90;;;;;;4989505;28;20176;-65
2022/03/19 06:56:15;;;;;;;18.40;10.48;;;5.40;99.90;;;;;;4989355;28;20267;-66
2022/03/19 06:58:41;;;;;;;17.58;11.07;;;5.40;99.90;;;;;;4989239;28;20738;-66
2022/03/19 07:01:15;;;;;;;18.47;11.37;;;5.50;99.90;;;;;;4989742;28;20263;-66
2022/03/19 07:03:42;;;;;;;15.13;11.52;;;5.60;99.90;;;;;;4987171;28;21115;-66
2022/03/19 07:06:08;;;;;;;19.58;11.18;;;5.70;99.90;;;;;;4985054;28;20690;-66
2022/03/19 07:08:33;;;;;;;16.77;10.57;;;5.80;99.90;;;;;;4993695;28;20184;-66
2022/03/19 07:10:59;;;;;;;18.17;11.17;;;5.90;99.90;;;;;;4995591;28;20188;-66
2022/03/19 07:13:24;;;;;;;18.40;11.90;;;5.80;99.90;;;;;;4993665;28;20220;-66
2022/03/19 07:15:51;;;;;;;16.67;11.90;;;5.80;99.90;;;;;;4991395;28;20699;-65
2022/03/19 07:18:16;;;;;;;22.02;14.32;;;5.80;99.90;;;;;;4993930;28;20185;-67
2022/03/19 07:20:42;;;;;;;19.43;12.70;;;5.90;99.90;;;;;;4973778;28;20195;-67
2022/03/19 07:23:08;;;;;;;22.43;14.40;;;5.90;99.90;;;;;;4992256;28;20200;-66
2022/03/19 07:25:39;;;;;;;21.93;14.00;;;5.90;99.90;;;;;;4990929;28;20243;-66
2022/03/19 07:28:13;;;;;;;24.92;14.85;;;5.90;99.90;;;;;;4978825;28;20185;-66
2022/03/19 07:30:39;;;;;;;20.00;14.45;;;5.90;99.90;;;;;;4986962;28;20275;-66
2022/03/19 07:33:05;;;;;;;24.63;15.00;;;5.90;99.90;;;;;;4989019;28;20187;-65
2022/03/19 07:35:31;;;;;;;25.00;15.27;;;5.90;99.90;;;;;;4989809;28;20662;-66
2022/03/19 07:38:01;;;;;;;24.20;15.63;;;5.80;99.90;;;;;;4982350;28;20181;-65
2022/03/19 07:43:13;;;;;;;25.48;15.82;;;5.70;99.90;;;;;;4991807;28;20211;-66
2022/03/19 07:45:40;;;;;;;25.95;18.10;;;5.70;99.90;;;;;;4992438;28;20204;-66
2022/03/19 07:48:06;;;;;;;24.83;16.33;;;5.80;99.90;;;;;;4991876;28;20292;-66
2022/03/19 07:50:34;;;;;;;27.40;16.23;;;6.00;99.90;;;;;;4992285;28;20612;-66
2022/03/19 07:53:00;;;;;;;24.98;16.65;;;6.00;99.90;;;;;;4983723;28;20443;-67
2022/03/19 07:55:26;;;;;;;22.00;16.40;;;6.00;99.90;;;;;;4972817;28;20521;-65
2022/03/19 07:57:52;;;;;;;29.90;16.47;;;6.00;99.90;;;;;;4972164;28;20640;-64
2022/03/19 08:00:18;;;;;;;24.33;16.02;;;6.20;99.90;;;;;;4972870;28;20408;-65
2022/03/19 08:02:44;;;;;;;33.97;16.60;;;6.20;99.90;;;;;;4976558;28;20251;-66
2022/03/19 08:05:10;;;;;;;31.10;17.00;;;6.20;99.90;;;;;;4991532;28;20556;-66
2022/03/19 08:07:37;;;;;;;25.08;16.15;;;6.20;99.90;;;;;;4990399;28;20227;-66
2022/03/19 08:10:04;;;;;;;24.13;16.95;;;6.10;99.90;;;;;;4991820;28;20168;-65
2022/03/19 08:12:30;;;;;;;29.10;18.15;;;6.20;99.90;;;;;;4990891;28;20177;-65
2022/03/19 08:14:55;;;;;;;20.90;15.35;;;6.10;99.90;;;;;;4991625;28;20595;-66
2022/03/19 08:17:21;;;;;;;23.00;15.67;;;6.20;99.90;;;;;;4980234;28;20187;-66
2022/03/19 08:19:47;;;;;;;26.70;17.63;;;6.30;99.90;;;;;;4994685;28;20199;-64
2022/03/19 08:22:12;;;;;;;29.97;19.40;;;6.30;99.90;;;;;;4999600;28;20206;-66
2022/03/19 08:24:38;;;;;;;24.10;16.20;;;6.40;99.90;;;;;;4987071;28;20212;-66
2022/03/19 08:27:04;;;;;;;25.63;17.27;;;6.50;99.90;;;;;;4994746;28;20584;-65
2022/03/19 08:29:29;;;;;;;24.17;17.30;;;6.50;99.90;;;;;;4996567;28;20420;-66
2022/03/19 08:31:56;;;;;;;22.70;15.90;;;6.50;99.90;;;;;;4991073;28;20185;-65
2022/03/19 08:34:22;;;;;;;23.17;16.30;;;6.60;99.90;;;;;;5002860;28;20439;-65
2022/03/19 08:36:48;;;;;;;22.77;15.60;;;6.50;99.90;;;;;;5002624;28;20461;-65
2022/03/19 08:41:58;;;;;;;22.30;15.20;;;6.70;99.90;;;;;;4993933;28;20234;-66
2022/03/19 08:44:25;;;;;;;19.70;14.20;;;6.80;99.90;;;;;;4996024;28;20495;-65
2022/03/19 08:46:51;;;;;;;24.30;15.83;;;6.80;99.90;;;;;;4980153;28;21326;-65
2022/03/19 08:49:16;;;;;;;20.03;15.07;;;7.00;99.90;;;;;;4992125;28;20431;-65
2022/03/19 08:51:42;;;;;;;22.60;15.63;;;7.00;99.90;;;;;;5001920;28;21100;-65
2022/03/19 08:54:17;;;;;;;23.90;15.70;;;7.10;99.90;;;;;;5001623;28;20214;-66
2022/03/19 08:56:46;;;;;;;23.30;15.30;;;7.10;99.90;;;;;;4992599;28;20176;-65
2022/03/19 08:59:12;;;;;;;24.37;16.93;;;7.20;99.90;;;;;;4990545;28;20483;-66
2022/03/19 09:01:39;;;;;;;23.60;16.83;;;7.20;99.90;;;;;;4979301;28;20474;-65
2022/03/19 09:04:06;;;;;;;21.73;16.90;;;7.30;99.90;;;;;;4990586;28;20415;-66
2022/03/19 09:06:32;;;;;;;22.97;16.90;;;7.20;99.90;;;;;;4998940;28;20642;-66
2022/03/19 09:09:00;;;;;;;24.47;16.97;;;7.10;99.90;;;;;;4999920;28;20519;-65
2022/03/19 09:11:26;;;;;;;21.87;16.70;;;7.00;99.90;;;;;;4982184;28;20177;-65
2022/03/19 09:13:52;;;;;;;20.10;15.47;;;7.00;99.90;;;;;;4967077;28;20527;-64
2022/03/19 09:16:18;;;;;;;18.20;13.87;;;6.90;99.90;;;;;;4954110;28;20970;-66
2022/03/19 09:18:44;;;;;;;17.50;13.37;;;6.90;99.90;;;;;;4954659;28;21001;-64
2022/03/19 09:21:09;;;;;;;19.73;13.90;;;6.80;99.90;;;;;;4951111;28;20524;-65
2022/03/19 09:23:35;;;;;;;21.53;13.50;;;6.90;99.90;;;;;;4954071;28;20197;-66
2022/03/19 09:26:00;;;;;;;16.87;12.13;;;6.90;99.90;;;;;;4952243;28;20189;-65
2022/03/19 09:28:26;;;;;;;16.03;12.20;;;6.80;99.90;;;;;;4953108;28;20182;-66
2022/03/19 09:30:51;;;;;;;15.20;12.00;;;6.70;99.90;;;;;;4952458;28;20193;-66
2022/03/19 09:33:18;;;;;;;16.07;11.40;;;6.70;99.90;;;;;;4951372;28;20202;-65
2022/03/19 09:35:45;;;;;;;11.93;9.73;;;6.70;99.90;;;;;;4948219;28;20193;-66
2022/03/19 09:38:12;;;;;;;11.77;9.33;;;6.60;99.90;;;;;;4952152;28;20915;-66
2022/03/19 09:40:38;;;;;;;11.00;9.20;;;6.50;99.90;;;;;;4952541;28;20913;-66
2022/03/19 09:43:04;;;;;;;9.17;8.17;;;6.40;99.90;;;;;;4951493;28;20949;-66
2022/03/19 09:45:30;;;;;;;10.57;8.77;;;6.40;99.90;;;;;;4951945;28;20472;-65
2022/03/19 09:47:56;;;;;;;16.60;7.90;;;6.50;99.90;;;;;;4951401;28;20178;-64
2022/03/19 09:50:23;;;;;;;9.43;7.60;;;6.50;99.90;;;;;;4960849;28;20185;-66
2022/03/19 09:52:53;;;;;;;9.20;8.17;;;6.60;99.90;;;;;;4950210;28;20441;-66
2022/03/19 09:55:20;;;;;;;8.27;6.93;;;6.80;99.90;;;;;;4957372;28;20440;-65
2022/03/19 09:57:46;;;;;;;7.60;6.40;;;7.10;99.90;;;;;;4957655;28;20444;-65
2022/03/19 10:00:13;;;;;;;7.57;6.70;;;7.20;99.90;;;;;;4956510;28;20432;-66
2022/03/19 10:03:02;;;;;;;7.80;6.10;;;7.40;99.90;;;;;;4953662;28;20468;-66
2022/03/19 10:08:36;;;;;;;7.20;6.50;;;7.60;99.90;;;;;;4955386;28;21005;-66
2022/03/19 10:11:06;;;;;;;10.23;8.33;;;7.90;99.90;;;;;;4948922;28;20434;-65
2022/03/19 10:13:32;;;;;;;9.50;8.37;;;7.80;99.90;;;;;;4953098;28;21307;-65
2022/03/19 10:15:58;;;;;;;9.77;8.53;;;7.90;99.90;;;;;;4998248;28;20438;-65
2022/03/19 10:18:28;;;;;;;14.07;10.20;;;8.10;99.90;;;;;;4989292;28;20443;-65
2022/03/19 10:20:54;;;;;;;12.47;10.20;;;8.40;99.90;;;;;;4990938;28;20255;-65
2022/03/19 10:23:39;;;;;;;14.17;11.27;;;9.00;99.90;;;;;;4987524;28;20436;-65
2022/03/19 10:26:08;;;;;;;14.50;12.87;;;9.30;99.90;;;;;;4989690;28;20208;-65
2022/03/19 10:28:35;;;;;;;16.37;13.50;;;9.10;99.90;;;;;;4989552;28;20967;-65
2022/03/19 10:31:02;;;;;;;14.37;12.70;;;9.20;99.90;;;;;;4988202;28;20416;-64
2022/03/19 10:33:30;;;;;;;16.80;13.43;;;9.30;99.90;;;;;;4987288;28;20446;-66
2022/03/19 10:36:10;;;;;;;17.50;12.83;;;9.30;99.90;;;;;;4985897;28;20534;-65
2022/03/19 10:38:44;;;;;;;15.10;13.27;;;9.20;99.80;;;;;;4984549;28;20534;-64
2022/03/19 10:41:12;;;;;;;17.33;14.87;;;9.30;99.70;;;;;;5002892;28;20426;-64
2022/03/19 10:43:37;;;;;;;19.00;15.47;;;9.40;99.50;;;;;;5002139;28;20495;-66
2022/03/19 10:46:04;;;;;;;19.07;15.43;;;9.40;98.80;;;;;;4993266;28;20609;-65
2022/03/19 10:48:30;;;;;;;18.10;16.00;;;9.60;97.80;;;;;;4998638;28;20191;-64
2022/03/19 10:51:02;;;;;;;19.30;16.00;;;9.70;97.40;;;;;;4993285;28;20503;-65
2022/03/19 10:53:27;;;;;;;18.17;15.70;;;9.70;96.00;;;;;;4999165;28;20445;-65
2022/03/19 10:55:53;;;;;;;18.03;16.13;;;9.60;94.80;;;;;;4999389;28;20446;-64
2022/03/19 10:58:19;;;;;;;18.17;16.27;;;9.70;94.80;;;;;;4990064;28;20188;-65
2022/03/19 11:00:50;;;;;;;20.43;16.87;;;9.80;94.40;;;;;;4984624;28;20272;-64
2022/03/19 11:03:24;;;;;;;18.57;16.60;;;10.10;93.40;;;;;;4988912;28;20187;-64
2022/03/19 11:05:57;;;;;;;17.87;16.00;;;10.90;91.00;;;;;;4991703;28;20474;-65
2022/03/19 11:08:23;;;;;;;19.63;17.53;;;12.00;84.70;;;;;;4989557;28;20490;-65
2022/03/19 11:10:50;;;;;;;19.90;17.07;;;12.60;67.30;;;;;;4982588;28;20525;-64
2022/03/19 11:13:20;;;;;;;20.60;17.87;;;12.90;62.90;;;;;;4990388;28;20436;-65
2022/03/19 11:15:49;;;;;;;19.97;18.00;;;13.30;61.60;;;;;;4995018;28;20798;-64
2022/03/19 11:18:18;;;;;;;19.77;17.70;;;14.00;58.20;;;;;;4997818;28;20985;-63
2022/03/19 11:20:45;;;;;;;20.50;17.80;;;14.90;56.50;;;;;;4998966;28;20456;-64
2022/03/19 11:23:16;;;;;;;19.87;17.90;;;15.90;51.00;;;;;;5003038;28;20443;-64
2022/03/19 11:25:56;;;;;;;19.83;18.03;;;16.20;47.40;;;;;;4999649;28;20470;-63
2022/03/19 11:28:22;;;;;;;19.37;17.47;;;16.30;44.70;;;;;;4998923;28;20453;-63
2022/03/19 11:31:00;;;;;;;19.77;17.97;;;16.30;42.90;;;;;;4990394;28;20442;-64
2022/03/19 11:33:28;;;;;;;18.77;17.20;;;16.00;42.10;;;;;;4992595;28;20859;-63
2022/03/19 11:35:53;;;;;;;21.10;19.00;;;16.40;41.30;;;;;;4990638;28;20473;-63
2022/03/19 11:38:21;;;;;;;19.90;18.10;;;16.40;40.20;;;;;;4992865;28;20840;-62
2022/03/19 11:40:54;;;;;;;20.67;18.67;;;16.70;39.60;;;;;;5003360;28;20526;-63
2022/03/19 11:43:32;;;;;;;21.03;19.23;;;16.90;38.10;;;;;;4988121;28;20522;-63
2022/03/19 11:46:06;;;;;;;21.67;19.53;;;17.60;36.40;;;;;;4988487;28;20470;-63
2022/03/19 11:48:37;;;;;;;21.67;19.60;;;18.00;35.50;;;;;;4989733;28;20439;-63
2022/03/19 11:51:19;;;;;;;22.93;20.87;;;18.00;34.40;;;;;;4992480;28;20789;-64
2022/03/19 11:54:12;;;;;;;22.57;20.47;;;18.10;33.30;;;;;;4987833;28;20828;-62
2022/03/19 11:56:40;;;;;;;22.40;20.20;;;17.80;34.50;;;;;;4998148;28;20442;-64
2022/03/19 11:59:21;;;;;;;23.13;20.97;;;17.40;33.80;;;;;;4993797;28;20830;-63
2022/03/19 12:02:05;;;;;;;23.00;20.87;;;17.90;33.90;;;;;;4991937;28;20973;-63
2022/03/19 12:04:48;;;;;;;21.97;19.97;;;18.20;33.20;;;;;;4980381;28;20472;-63
2022/03/19 12:07:37;;;;;;;24.27;22.00;;;18.20;34.00;;;;;;4981407;28;20486;-63
2022/03/19 12:10:07;;;;;;;23.10;20.90;;;18.20;33.90;;;;;;5001605;28;20425;-62
2022/03/19 12:12:33;;;;;;;23.43;21.43;;;18.60;32.10;;;;;;4991543;28;20435;-62
2022/03/19 12:14:59;;;;;;;23.83;21.53;;;17.90;32.50;;;;;;5000279;28;20497;-63
2022/03/19 12:17:28;;;;;;;23.47;21.17;;;17.60;33.60;;;;;;4995279;28;20187;-63
2022/03/19 12:20:03;;;;;;;23.20;21.10;;;17.40;33.30;;;;;;4989618;28;20184;-63
2022/03/19 12:22:35;;;;;;;24.47;22.17;;;17.00;32.50;;;;;;4987496;28;20961;-63
2022/03/19 12:25:03;;;;;;;24.40;21.80;;;17.10;33.70;;;;;;4999142;28;20472;-62
2022/03/19 12:27:29;;;;;;;24.50;22.40;;;17.00;32.40;;;;;;4991602;28;20446;-63
2022/03/19 12:29:58;;;;;;;23.73;21.63;;;16.90;32.00;;;;;;4987673;28;20431;-64
2022/03/19 12:32:23;;;;;;;24.07;21.57;;;17.50;33.20;;;;;;4985698;28;20189;-62
2022/03/19 12:34:58;;;;;;;24.80;22.50;;;17.90;32.90;;;;;;4979504;28;20489;-64
2022/03/19 12:37:24;;;;;;;22.93;20.83;;;18.50;32.10;;;;;;4974572;28;20179;-64
2022/03/19 12:39:59;;;;;;;22.73;20.70;;;18.80;30.30;;;;;;4974774;28;20455;-63
2022/03/19 12:42:33;;;;;;;23.00;20.97;;;18.70;29.60;;;;;;4975045;28;20424;-63
2022/03/19 12:44:59;;;;;;;23.87;21.57;;;19.00;30.00;;;;;;4981420;28;20467;-63
2022/03/19 12:47:26;;;;;;;22.63;20.53;;;19.00;29.40;;;;;;4973597;28;20432;-64
2022/03/19 12:49:53;;;;;;;23.83;21.73;;;18.70;27.80;;;;;;4978562;28;20436;-64